createdAt,value
2016-08-30T00:00:26.456Z,0
2016-08-30T00:01:27.858Z,0
2016-08-30T00:02:28.927Z,0
2016-08-30T00:03:24.574Z,0
2016-08-30T00:04:25.239Z,0
2016-08-30T00:05:26.364Z,0
2016-08-30T00:06:25.175Z,0
2016-08-30T00:07:25.840Z,0
2016-08-30T00:08:25.112Z,0
2016-08-30T00:09:24.386Z,0
2016-08-30T00:10:25.055Z,0
2016-08-30T00:11:25.019Z,0
2016-08-30T00:12:24.989Z,0
2016-08-30T00:13:24.260Z,0
2016-08-30T00:14:25.628Z,0
2016-08-30T00:15:25.598Z,0
2016-08-30T00:16:24.891Z,0
2016-08-30T00:17:25.550Z,0
2016-08-30T00:18:25.509Z,0
2016-08-30T00:19:24.771Z,0
2016-08-30T00:20:24.812Z,0
2016-08-30T00:21:25.404Z,0
2016-08-30T00:22:25.371Z,0
2016-08-30T00:23:25.341Z,0
2016-08-30T00:24:25.314Z,0
2016-08-30T00:25:25.296Z,0
2016-08-30T00:26:25.259Z,0
2016-08-30T00:27:25.217Z,0
2016-08-30T00:28:24.492Z,0
2016-08-30T00:29:24.463Z,0
2016-08-30T00:30:24.443Z,0
2016-08-30T00:31:24.396Z,0
2016-08-30T00:32:24.362Z,0
2016-08-30T00:33:23.640Z,0
2016-08-30T00:34:24.999Z,0
2016-08-30T00:35:23.576Z,0
2016-08-30T00:36:24.936Z,0
2016-08-30T00:37:24.906Z,0
2016-08-30T00:38:23.479Z,0
2016-08-30T00:39:24.845Z,0
2016-08-30T00:40:24.814Z,0
2016-08-30T00:41:24.784Z,0
2016-08-30T00:42:24.049Z,0
2016-08-30T00:43:24.023Z,0
2016-08-30T00:44:23.989Z,0
2016-08-30T00:45:23.265Z,0
2016-08-30T00:46:24.623Z,0
2016-08-30T00:47:23.203Z,0
2016-08-30T00:48:23.869Z,0
2016-08-30T00:49:24.544Z,0
2016-08-30T00:50:24.500Z,0
2016-08-30T00:51:22.379Z,0
2016-08-30T00:52:23.746Z,0
2016-08-30T00:53:23.718Z,0
2016-08-30T00:54:23.680Z,0
2016-08-30T00:55:24.118Z,0
2016-08-30T00:56:24.331Z,0
2016-08-30T00:57:23.587Z,0
2016-08-30T00:58:23.562Z,0
2016-08-30T00:59:24.232Z,0
2016-08-30T01:00:23.491Z,0
2016-08-30T01:01:22.767Z,0
2016-08-30T01:02:23.430Z,0
2016-08-30T01:03:24.103Z,0
2016-08-30T01:04:22.683Z,0
2016-08-30T01:05:24.031Z,0
2016-08-30T01:06:23.308Z,0
2016-08-30T01:07:22.579Z,0
2016-08-30T01:08:23.242Z,0
2016-08-30T01:09:22.513Z,0
2016-08-30T01:10:23.180Z,0
2016-08-30T01:11:23.152Z,0
2016-08-30T01:12:23.814Z,0
2016-08-30T01:13:22.390Z,0
2016-08-30T01:14:23.056Z,0
2016-08-30T01:15:23.999Z,0
2016-08-30T01:16:23.007Z,0
2016-08-30T01:17:23.655Z,0
2016-08-30T01:18:22.236Z,0
2016-08-30T01:19:22.897Z,0
2016-08-30T01:20:22.865Z,0
2016-08-30T01:21:23.533Z,0
2016-08-30T01:22:22.808Z,0
2016-08-30T01:23:23.469Z,0
2016-08-30T01:24:22.761Z,0
2016-08-30T01:25:22.713Z,0
2016-08-30T01:26:21.981Z,0
2016-08-30T01:27:22.646Z,0
2016-08-30T01:28:23.315Z,0
2016-08-30T01:29:21.886Z,0
2016-08-30T01:30:22.560Z,0
2016-08-30T01:31:21.840Z,0
2016-08-30T01:32:23.181Z,0
2016-08-30T01:33:23.158Z,0
2016-08-30T01:34:22.423Z,0
2016-08-30T01:35:22.392Z,0
2016-08-30T01:36:23.080Z,0
2016-08-30T01:37:22.336Z,0
2016-08-30T01:38:23.013Z,0
2016-08-30T01:39:22.981Z,0
2016-08-30T01:40:22.257Z,0
2016-08-30T01:41:21.514Z,0
2016-08-30T01:42:22.169Z,0
2016-08-30T01:43:22.147Z,0
2016-08-30T01:44:22.109Z,0
2016-08-30T01:45:21.387Z,0
2016-08-30T01:46:22.046Z,0
2016-08-30T01:47:22.012Z,0
2016-08-30T01:48:21.989Z,0
2016-08-30T01:49:22.653Z,0
2016-08-30T01:50:22.790Z,0
2016-08-30T01:51:22.583Z,0
2016-08-30T01:52:21.166Z,0
2016-08-30T01:53:22.518Z,0
2016-08-30T01:54:21.791Z,0
2016-08-30T01:55:21.755Z,0
2016-08-30T01:56:22.422Z,0
2016-08-30T01:57:21.698Z,0
2016-08-30T01:58:21.666Z,0
2016-08-30T01:59:22.328Z,0
2016-08-30T02:00:21.205Z,0
2016-08-30T02:01:21.574Z,0
2016-08-30T02:02:22.226Z,0
2016-08-30T02:03:22.212Z,0
2016-08-30T02:04:22.179Z,0
2016-08-30T02:05:22.137Z,0
2016-08-30T02:06:20.714Z,0
2016-08-30T02:07:22.071Z,0
2016-08-30T02:08:21.352Z,0
2016-08-30T02:09:22.010Z,0
2016-08-30T02:10:21.985Z,0
2016-08-30T02:11:21.252Z,0
2016-08-30T02:12:21.221Z,0
2016-08-30T02:13:21.887Z,0
2016-08-30T02:14:21.856Z,0
2016-08-30T02:15:21.121Z,0
2016-08-30T02:16:20.403Z,0
2016-08-30T02:17:21.754Z,0
2016-08-30T02:18:21.726Z,0
2016-08-30T02:19:21.705Z,0
2016-08-30T02:20:21.672Z,0
2016-08-30T02:21:20.934Z,0
2016-08-30T02:22:21.601Z,0
2016-08-30T02:23:21.574Z,0
2016-08-30T02:24:21.538Z,0
2016-08-30T02:25:21.505Z,0
2016-08-30T02:26:21.470Z,0
2016-08-30T02:27:20.741Z,0
2016-08-30T02:28:21.408Z,0
2016-08-30T02:29:21.377Z,0
2016-08-30T02:30:20.710Z,0
2016-08-30T02:31:21.312Z,0
2016-08-30T02:32:20.581Z,0
2016-08-30T02:33:21.249Z,0
2016-08-30T02:34:21.218Z,0
2016-08-30T02:35:20.496Z,0
2016-08-30T02:36:21.158Z,0
2016-08-30T02:37:20.428Z,0
2016-08-30T02:38:21.093Z,0
2016-08-30T02:39:21.063Z,0
2016-08-30T02:40:19.629Z,0
2016-08-30T02:41:20.291Z,0
2016-08-30T02:42:20.265Z,0
2016-08-30T02:43:20.924Z,0
2016-08-30T02:44:20.194Z,0
2016-08-30T02:45:20.875Z,0
2016-08-30T02:46:20.833Z,0
2016-08-30T02:47:20.809Z,0
2016-08-30T02:48:20.067Z,0
2016-08-30T02:49:20.731Z,0
2016-08-30T02:50:20.019Z,0
2016-08-30T02:51:20.678Z,0
2016-08-30T02:52:20.640Z,0
2016-08-30T02:53:20.609Z,0
2016-08-30T02:54:20.576Z,0
2016-08-30T02:55:19.155Z,0
2016-08-30T02:56:19.118Z,0
2016-08-30T02:57:21.132Z,0
2016-08-30T02:58:20.447Z,0
2016-08-30T02:59:19.713Z,0
2016-08-30T03:00:19.683Z,0
2016-08-30T03:01:20.346Z,0
2016-08-30T03:02:20.313Z,0
2016-08-30T03:03:19.590Z,0
2016-08-30T03:04:19.566Z,0
2016-08-30T03:05:20.220Z,0
2016-08-30T03:06:20.189Z,0
2016-08-30T03:07:20.162Z,0
2016-08-30T03:08:20.122Z,0
2016-08-30T03:09:19.402Z,0
2016-08-30T03:10:20.055Z,0
2016-08-30T03:11:20.027Z,0
2016-08-30T03:12:19.992Z,0
2016-08-30T03:13:19.263Z,0
2016-08-30T03:14:19.925Z,0
2016-08-30T03:15:20.255Z,0
2016-08-30T03:16:19.863Z,0
2016-08-30T03:17:19.132Z,0
2016-08-30T03:18:18.406Z,0
2016-08-30T03:19:19.768Z,0
2016-08-30T03:20:19.735Z,0
2016-08-30T03:21:19.704Z,0
2016-08-30T03:22:18.976Z,0
2016-08-30T03:23:19.648Z,0
2016-08-30T03:24:19.609Z,0
2016-08-30T03:25:19.076Z,0
2016-08-30T03:26:18.842Z,0
2016-08-30T03:27:19.506Z,0
2016-08-30T03:28:19.473Z,0
2016-08-30T03:29:18.743Z,0
2016-08-30T03:30:18.715Z,0
2016-08-30T03:31:18.685Z,0
2016-08-30T03:32:19.343Z,0
2016-08-30T03:33:19.325Z,0
2016-08-30T03:34:17.892Z,0
2016-08-30T03:35:19.254Z,0
2016-08-30T03:36:19.216Z,0
2016-08-30T03:37:18.488Z,0
2016-08-30T03:38:18.456Z,0
2016-08-30T03:39:19.129Z,0
2016-08-30T03:40:18.394Z,0
2016-08-30T03:41:18.360Z,0
2016-08-30T03:42:18.346Z,0
2016-08-30T03:43:18.990Z,0
2016-08-30T03:44:18.957Z,0
2016-08-30T03:45:17.600Z,0
2016-08-30T03:46:18.208Z,0
2016-08-30T03:47:18.163Z,0
2016-08-30T03:48:18.828Z,0
2016-08-30T03:49:18.797Z,0
2016-08-30T03:50:18.069Z,0
2016-08-30T03:51:18.757Z,0
2016-08-30T03:52:18.001Z,0
2016-08-30T03:53:17.980Z,0
2016-08-30T03:54:18.635Z,0
2016-08-30T03:55:17.905Z,0
2016-08-30T03:56:18.572Z,0
2016-08-30T03:57:17.857Z,0
2016-08-30T03:58:18.509Z,0
2016-08-30T03:59:18.479Z,0
2016-08-30T04:00:18.477Z,0
2016-08-30T04:01:17.727Z,0
2016-08-30T04:02:18.379Z,0
2016-08-30T04:03:17.644Z,0
2016-08-30T04:04:17.613Z,4
2016-08-30T04:05:18.138Z,0
2016-08-30T04:06:17.548Z,0
2016-08-30T04:07:16.827Z,4
2016-08-30T04:08:18.182Z,4
2016-08-30T04:09:18.153Z,4
2016-08-30T04:10:17.528Z,4
2016-08-30T04:11:18.082Z,4
2016-08-30T04:12:17.368Z,8
2016-08-30T04:13:18.023Z,12
2016-08-30T04:14:16.600Z,12
2016-08-30T04:15:17.996Z,12
2016-08-30T04:16:17.230Z,16
2016-08-30T04:17:17.198Z,20
2016-08-30T04:18:17.166Z,24
2016-08-30T04:19:17.133Z,28
2016-08-30T04:20:17.112Z,36
2016-08-30T04:21:17.766Z,40
2016-08-30T04:22:17.736Z,44
2016-08-30T04:23:15.609Z,52
2016-08-30T04:24:16.293Z,64
2016-08-30T04:25:16.956Z,72
2016-08-30T04:26:16.207Z,84
2016-08-30T04:27:16.881Z,100
2016-08-30T04:28:16.846Z,112
2016-08-30T04:29:17.504Z,128
2016-08-30T04:30:16.778Z,144
2016-08-30T04:31:16.742Z,164
2016-08-30T04:32:17.409Z,184
2016-08-30T04:33:17.378Z,204
2016-08-30T04:34:16.648Z,224
2016-08-30T04:35:16.616Z,248
2016-08-30T04:36:16.587Z,272
2016-08-30T04:37:15.865Z,292
2016-08-30T04:38:16.544Z,320
2016-08-30T04:39:17.189Z,348
2016-08-30T04:40:15.772Z,376
2016-08-30T04:41:16.425Z,412
2016-08-30T04:42:15.699Z,444
2016-08-30T04:43:17.061Z,488
2016-08-30T04:44:17.027Z,532
2016-08-30T04:45:15.996Z,592
2016-08-30T04:46:16.971Z,652
2016-08-30T04:47:16.235Z,712
2016-08-30T04:48:16.211Z,780
2016-08-30T04:49:16.172Z,856
2016-08-30T04:50:16.357Z,936
2016-08-30T04:51:15.416Z,1020
2016-08-30T04:52:16.773Z,1128
2016-08-30T04:53:14.651Z,1244
2016-08-30T04:54:16.015Z,1372
2016-08-30T04:55:16.684Z,1516
2016-08-30T04:56:16.649Z,1636
2016-08-30T04:57:15.920Z,1728
2016-08-30T04:58:16.589Z,1876
2016-08-30T04:59:16.554Z,2056
2016-08-30T05:00:15.133Z,2216
2016-08-30T05:01:15.794Z,2376
2016-08-30T05:02:15.771Z,2524
2016-08-30T05:03:15.729Z,2684
2016-08-30T05:04:15.696Z,2844
2016-08-30T05:05:15.673Z,3032
2016-08-30T05:06:14.239Z,3216
2016-08-30T05:07:15.602Z,3404
2016-08-30T05:08:15.574Z,3592
2016-08-30T05:09:16.235Z,3808
2016-08-30T05:10:15.523Z,4020
2016-08-30T05:11:16.176Z,4272
2016-08-30T05:12:16.141Z,4540
2016-08-30T05:13:15.417Z,4896
2016-08-30T05:14:15.382Z,5456
2016-08-30T05:15:15.351Z,5800
2016-08-30T05:16:16.023Z,6084
2016-08-30T05:17:15.287Z,6436
2016-08-30T05:18:15.955Z,6640
2016-08-30T05:19:15.230Z,6876
2016-08-30T05:20:16.009Z,7164
2016-08-30T05:21:15.867Z,7564
2016-08-30T05:22:15.840Z,7892
2016-08-30T05:23:15.810Z,8256
2016-08-30T05:24:15.774Z,8576
2016-08-30T05:25:15.065Z,8820
2016-08-30T05:26:14.332Z,9004
2016-08-30T05:27:15.684Z,9196
2016-08-30T05:28:15.659Z,9268
2016-08-30T05:29:14.929Z,9440
2016-08-30T05:30:14.901Z,10988
2016-08-30T05:31:15.567Z,12740
2016-08-30T05:32:15.542Z,14528
2016-08-30T05:33:14.121Z,15360
2016-08-30T05:34:13.385Z,16448
2016-08-30T05:35:15.530Z,17536
2016-08-30T05:36:15.151Z,17632
2016-08-30T05:37:15.429Z,16320
2016-08-30T05:38:15.381Z,15136
2016-08-30T05:39:13.248Z,15744
2016-08-30T05:40:35.426Z,16960
2016-08-30T05:41:17.209Z,17952
2016-08-30T05:42:14.591Z,14944
2016-08-30T05:43:15.242Z,19296
2016-08-30T05:44:13.817Z,20000
2016-08-30T05:45:15.182Z,20256
2016-08-30T05:46:15.539Z,19776
2016-08-30T05:47:14.424Z,19328
2016-08-30T05:48:15.143Z,20096
2016-08-30T05:49:15.067Z,18688
2016-08-30T05:50:14.579Z,17056
2016-08-30T05:51:12.912Z,18368
2016-08-30T05:52:14.288Z,19744
2016-08-30T05:53:14.251Z,20544
2016-08-30T05:58:11.691Z,25408
2016-08-30T05:59:04.099Z,27904
2016-08-30T06:00:05.305Z,30016
2016-08-30T06:01:23.660Z,30976
2016-08-30T06:02:02.964Z,30240
2016-08-30T06:03:01.787Z,32480
2016-08-30T06:04:02.464Z,33216
2016-08-30T06:05:02.434Z,34496
2016-08-30T06:06:01.740Z,35392
2016-08-30T06:08:04.292Z,33824
2016-08-30T06:09:10.575Z,34464
2016-08-30T06:10:16.900Z,36384
2016-08-30T06:11:02.349Z,38208
2016-08-30T06:12:02.284Z,37824
2016-08-30T06:13:02.244Z,38304
2016-08-30T06:14:01.496Z,39072
2016-08-30T06:15:03.172Z,41120
2016-08-30T06:16:01.472Z,41024
2016-08-30T06:17:02.133Z,42048
2016-08-30T06:18:02.806Z,43232
2016-08-30T06:19:02.061Z,45184
2016-08-30T06:20:03.793Z,45856
2016-08-30T06:21:02.037Z,46304
2016-08-30T06:22:01.288Z,46496
2016-08-30T06:23:02.654Z,44896
2016-08-30T06:24:02.625Z,47360
2016-08-30T06:25:03.290Z,48928
2016-08-30T06:26:02.574Z,50880
2016-08-30T06:27:02.548Z,52480
2016-08-30T06:28:03.220Z,52544
2016-08-30T06:29:03.583Z,51488
2016-08-30T06:30:01.778Z,52352
2016-08-30T06:31:03.145Z,52960
2016-08-30T06:32:01.726Z,53056
2016-08-30T06:33:01.702Z,54336
2016-08-30T06:34:02.379Z,53984
2016-08-30T06:35:02.352Z,53376
2016-08-30T06:36:02.327Z,56160
2016-08-30T06:37:02.302Z,56000
2016-08-30T06:38:02.981Z,55584
2016-08-30T06:39:02.952Z,55456
2016-08-30T06:40:02.928Z,55552
2016-08-30T06:41:02.238Z,57088
2016-08-30T06:42:02.909Z,59744
2016-08-30T06:43:02.855Z,61664
2016-08-30T06:44:02.828Z,61312
2016-08-30T06:45:00.731Z,61440
2016-08-30T06:46:02.088Z,63680
2016-08-30T06:47:02.067Z,64000
2016-08-30T06:48:02.739Z,62464
2016-08-30T06:49:01.322Z,63776
2016-08-30T06:50:02.015Z,66080
2016-08-30T06:51:01.976Z,67296
2016-08-30T06:52:02.656Z,66944
2016-08-30T06:53:01.932Z,69792
2016-08-30T06:54:01.208Z,73472
2016-08-30T06:55:01.180Z,72736
2016-08-30T06:56:00.486Z,71904
2016-08-30T06:57:01.839Z,70432
2016-08-30T06:58:02.503Z,71104
2016-08-30T06:59:01.087Z,74400
2016-08-30T07:00:02.459Z,76384
2016-08-30T07:01:01.745Z,74624
2016-08-30T07:02:01.718Z,73152
2016-08-30T07:03:00.998Z,72320
2016-08-30T07:04:01.673Z,72128
2016-08-30T07:05:01.671Z,73440
2016-08-30T07:06:02.325Z,74688
2016-08-30T07:07:02.314Z,77504
2016-08-30T07:08:01.591Z,78880
2016-08-30T07:09:01.559Z,77408
2016-08-30T07:10:01.537Z,74880
2016-08-30T07:11:01.530Z,75648
2016-08-30T07:12:01.491Z,77504
2016-08-30T07:13:02.173Z,80064
2016-08-30T07:14:00.748Z,81248
2016-08-30T07:15:01.427Z,83712
2016-08-30T07:16:00.704Z,85568
2016-08-30T07:17:01.379Z,78976
2016-08-30T07:18:01.361Z,75040
2016-08-30T07:19:00.703Z,79360
2016-08-30T07:20:00.313Z,83392
2016-08-30T07:20:59.907Z,79136
2016-08-30T07:22:00.591Z,80384
2016-08-30T07:22:59.871Z,81184
2016-08-30T07:24:00.740Z,81792
2016-08-30T07:24:59.859Z,86752
2016-08-30T07:26:01.197Z,85728
2016-08-30T07:27:01.294Z,82976
2016-08-30T07:28:01.831Z,85792
2016-08-30T07:29:01.813Z,85216
2016-08-30T07:30:01.791Z,83680
2016-08-30T07:31:01.077Z,83712
2016-08-30T07:32:01.745Z,84704
2016-08-30T07:33:01.729Z,85696
2016-08-30T07:34:01.712Z,82496
2016-08-30T07:35:00.296Z,83008
2016-08-30T07:36:01.679Z,88320
2016-08-30T07:37:01.639Z,88096
2016-08-30T07:38:01.622Z,84608
2016-08-30T07:39:00.220Z,87840
2016-08-30T07:40:01.593Z,89600
2016-08-30T07:41:01.554Z,87232
2016-08-30T07:42:01.539Z,84224
2016-08-30T07:43:01.516Z,86528
2016-08-30T07:44:00.800Z,89696
2016-08-30T07:45:00.811Z,87680
2016-08-30T07:46:01.459Z,85376
2016-08-30T07:47:00.744Z,82496
2016-08-30T07:48:00.019Z,83680
2016-08-30T07:48:59.998Z,86464
2016-08-30T07:50:01.371Z,89728
2016-08-30T07:51:00.659Z,89472
2016-08-30T07:52:01.333Z,87840
2016-08-30T07:53:00.614Z,85408
2016-08-30T07:54:01.292Z,87008
2016-08-30T07:55:01.279Z,89056
2016-08-30T07:56:00.561Z,90368
2016-08-30T07:57:01.234Z,87072
2016-08-30T07:58:01.216Z,88256
2016-08-30T07:59:01.189Z,88480
2016-08-30T08:00:00.512Z,91232
2016-08-30T08:01:00.462Z,89312
2016-08-30T08:02:00.453Z,82464
2016-08-30T08:02:59.720Z,82496
2016-08-30T08:04:00.397Z,85184
2016-08-30T08:05:00.379Z,87136
2016-08-30T08:06:01.060Z,89856
2016-08-30T08:07:00.334Z,85152
2016-08-30T08:08:00.317Z,56864
2016-08-30T08:09:00.998Z,32160
2016-08-30T08:10:00.982Z,27744
2016-08-30T08:11:00.961Z,26880
2016-08-30T08:12:00.241Z,26528
2016-08-30T08:13:00.219Z,26368
2016-08-30T08:14:00.898Z,26304
2016-08-30T08:15:00.181Z,26336
2016-08-30T08:16:00.867Z,26304
2016-08-30T08:17:00.857Z,26240
2016-08-30T08:18:00.820Z,26400
2016-08-30T08:19:00.804Z,26368
2016-08-30T08:20:00.090Z,26272
2016-08-30T08:21:00.102Z,26368
2016-08-30T08:22:00.056Z,26336
2016-08-30T08:23:00.804Z,26336
2016-08-30T08:24:00.719Z,26528
2016-08-30T08:24:59.993Z,26688
2016-08-30T08:25:59.283Z,26752
2016-08-30T08:26:59.281Z,26976
2016-08-30T08:27:59.246Z,27200
2016-08-30T08:28:59.234Z,27520
2016-08-30T08:30:00.600Z,28160
2016-08-30T08:30:59.879Z,28960
2016-08-30T08:31:58.469Z,30912
2016-08-30T08:33:00.542Z,48640
2016-08-30T08:33:59.831Z,77696
2016-08-30T08:35:00.504Z,84736
2016-08-30T08:36:00.489Z,87840
2016-08-30T08:37:00.479Z,96512
2016-08-30T08:37:59.759Z,99648
2016-08-30T08:38:59.743Z,97920
2016-08-30T08:40:00.413Z,95808
2016-08-30T08:42:03.610Z,97760
2016-08-30T08:42:13.775Z,98144
2016-08-30T08:43:14.315Z,100608
2016-08-30T08:44:14.462Z,102784
2016-08-30T08:45:19.121Z,105760
2016-08-30T08:46:14.149Z,105920
2016-08-30T08:47:12.883Z,108928
2016-08-30T08:48:13.582Z,126400
2016-08-30T08:49:13.612Z,130464
2016-08-30T08:50:12.808Z,119008
2016-08-30T08:51:14.334Z,114976
2016-08-30T08:52:13.528Z,115712
2016-08-30T08:53:12.845Z,119904
2016-08-30T08:54:12.721Z,118560
2016-08-30T08:55:12.742Z,118304
2016-08-30T08:56:14.175Z,117184
2016-08-30T08:57:12.661Z,115296
2016-08-30T08:58:13.351Z,117472
2016-08-30T08:59:12.877Z,121504
2016-08-30T09:00:13.625Z,117216
2016-08-30T09:01:12.691Z,113984
2016-08-30T09:02:14.011Z,112224
2016-08-30T09:03:12.565Z,113760
2016-08-30T09:04:13.238Z,116544
2016-08-30T09:05:13.298Z,112640
2016-08-30T09:06:12.560Z,118848
2016-08-30T09:07:14.178Z,119776
2016-08-30T09:08:13.880Z,116928
2016-08-30T09:09:12.457Z,111296
2016-08-30T09:10:13.462Z,110720
2016-08-30T09:11:13.133Z,120384
2016-08-30T09:12:16.539Z,122080
2016-08-30T09:13:13.076Z,121024
2016-08-30T09:14:13.759Z,123520
2016-08-30T09:15:13.744Z,114400
2016-08-30T09:16:13.721Z,109568
2016-08-30T09:17:13.719Z,112320
2016-08-30T09:18:12.295Z,110560
2016-08-30T09:19:14.382Z,112864
2016-08-30T09:20:14.360Z,111712
2016-08-30T09:21:12.944Z,107104
2016-08-30T09:22:13.621Z,109472
2016-08-30T09:23:13.608Z,111776
2016-08-30T09:24:14.285Z,108064
2016-08-30T09:25:14.391Z,107136
2016-08-30T09:26:13.553Z,110816
2016-08-30T09:27:13.534Z,141536
2016-08-30T09:28:13.522Z,177536
2016-08-30T09:29:14.201Z,163264
2016-08-30T09:30:13.358Z,113248
2016-08-30T09:31:13.468Z,75392
2016-08-30T09:32:13.451Z,65408
2016-08-30T09:33:14.135Z,61504
2016-08-30T09:34:14.121Z,59584
2016-08-30T09:35:14.707Z,58016
2016-08-30T09:36:12.690Z,57984
2016-08-30T09:37:14.064Z,57984
2016-08-30T09:38:13.355Z,57184
2016-08-30T09:39:12.643Z,56512
2016-08-30T09:40:13.319Z,57568
2016-08-30T09:41:12.602Z,61344
2016-08-30T09:42:13.290Z,62080
2016-08-30T09:43:13.961Z,64736
2016-08-30T09:44:13.948Z,65600
2016-08-30T09:45:12.537Z,64160
2016-08-30T09:46:13.913Z,65952
2016-08-30T09:47:13.198Z,70496
2016-08-30T09:48:13.182Z,73344
2016-08-30T09:49:13.859Z,76832
2016-08-30T09:50:13.201Z,79840
2016-08-30T09:51:13.831Z,84384
2016-08-30T09:52:13.116Z,83456
2016-08-30T09:53:13.100Z,83328
2016-08-30T09:54:13.080Z,89248
2016-08-30T09:55:13.771Z,92288
2016-08-30T09:56:13.043Z,92512
2016-08-30T09:57:13.032Z,95040
2016-08-30T09:58:13.009Z,99104
2016-08-30T09:59:12.994Z,97568
2016-08-30T10:00:13.681Z,91968
2016-08-30T10:01:13.668Z,94432
2016-08-30T10:02:13.661Z,95072
2016-08-30T10:03:12.228Z,94304
2016-08-30T10:04:12.213Z,99424
2016-08-30T10:05:12.197Z,103424
2016-08-30T10:06:13.580Z,103904
2016-08-30T10:07:12.854Z,106080
2016-08-30T10:08:12.141Z,103680
2016-08-30T10:09:13.527Z,97664
2016-08-30T10:10:13.523Z,101728
2016-08-30T10:11:12.792Z,102368
2016-08-30T10:12:12.774Z,99840
2016-08-30T10:13:12.756Z,103520
2016-08-30T10:14:12.749Z,101184
2016-08-30T10:15:12.029Z,95136
2016-08-30T10:16:13.402Z,97952
2016-08-30T10:17:12.692Z,99200
2016-08-30T10:18:12.669Z,99744
2016-08-30T10:19:13.350Z,100672
2016-08-30T10:20:13.393Z,100704
2016-08-30T10:21:12.135Z,98688
2016-08-30T10:22:13.296Z,97376
2016-08-30T10:23:12.598Z,99744
2016-08-30T10:24:13.269Z,93760
2016-08-30T10:25:13.419Z,91136
2016-08-30T10:26:13.243Z,98624
2016-08-30T10:27:12.151Z,98240
2016-08-30T10:28:11.109Z,94688
2016-08-30T10:29:12.486Z,98432
2016-08-30T10:30:13.275Z,95200
2016-08-30T10:31:12.452Z,90272
2016-08-30T10:32:12.434Z,64864
2016-08-30T10:33:11.723Z,31520
2016-08-30T10:34:12.397Z,26816
2016-08-30T10:35:11.696Z,28064
2016-08-30T10:36:12.372Z,30336
2016-08-30T10:37:12.362Z,31104
2016-08-30T10:38:12.332Z,31136
2016-08-30T10:39:12.315Z,30112
2016-08-30T10:40:11.601Z,26624
2016-08-30T10:41:12.990Z,24352
2016-08-30T10:42:11.570Z,24192
2016-08-30T10:43:11.549Z,24864
2016-08-30T10:44:11.535Z,28096
2016-08-30T10:45:12.243Z,32224
2016-08-30T10:46:12.199Z,33856
2016-08-30T10:47:11.485Z,32928
2016-08-30T10:48:12.161Z,27360
2016-08-30T10:49:11.445Z,24384
2016-08-30T10:50:12.690Z,25696
2016-08-30T10:51:11.412Z,29824
2016-08-30T10:52:12.086Z,32192
2016-08-30T10:53:12.787Z,32160
2016-08-30T10:54:12.049Z,32256
2016-08-30T10:55:12.729Z,33728
2016-08-30T10:56:11.319Z,36576
2016-08-30T10:57:12.692Z,62656
2016-08-30T10:58:11.981Z,91296
2016-08-30T10:59:12.656Z,98912
2016-08-30T11:00:11.939Z,100672
2016-08-30T11:01:11.919Z,99552
2016-08-30T11:02:11.252Z,99136
2016-08-30T11:03:12.581Z,89408
2016-08-30T11:04:11.861Z,76736
2016-08-30T11:05:12.769Z,77984
2016-08-30T11:06:12.540Z,78368
2016-08-30T11:07:12.496Z,77376
2016-08-30T11:08:12.485Z,82144
2016-08-30T11:09:12.462Z,82112
2016-08-30T11:10:11.744Z,74240
2016-08-30T11:11:11.729Z,74752
2016-08-30T11:12:12.409Z,79040
2016-08-30T11:13:11.686Z,74368
2016-08-30T11:14:12.378Z,44224
2016-08-30T11:15:12.344Z,20672
2016-08-30T11:16:11.629Z,19136
2016-08-30T11:17:12.320Z,18048
2016-08-30T11:18:12.291Z,17224
2016-08-30T11:19:12.263Z,16776
2016-08-30T11:20:11.569Z,16396
2016-08-30T11:21:11.536Z,16208
2016-08-30T11:22:12.203Z,15840
2016-08-30T11:23:11.492Z,15776
2016-08-30T11:24:11.469Z,15628
2016-08-30T11:25:10.747Z,15608
2016-08-30T11:26:12.121Z,15832
2016-08-30T11:27:11.403Z,15656
2016-08-30T11:28:09.983Z,15636
2016-08-30T11:29:10.670Z,14772
2016-08-30T11:30:10.653Z,14296
2016-08-30T11:31:11.310Z,14128
2016-08-30T11:32:10.595Z,13908
2016-08-30T11:33:11.269Z,13596
2016-08-30T11:34:11.937Z,13280
2016-08-30T11:35:11.484Z,13048
2016-08-30T11:36:11.197Z,12584
2016-08-30T11:37:11.184Z,11644
2016-08-30T11:38:11.165Z,10748
2016-08-30T11:39:11.125Z,9796
2016-08-30T11:40:11.801Z,9644
2016-08-30T11:41:10.386Z,9192
2016-08-30T11:42:11.051Z,8720
2016-08-30T11:43:11.734Z,8692
2016-08-30T11:44:09.611Z,8676
2016-08-30T11:45:10.284Z,8588
2016-08-30T11:46:11.658Z,8628
2016-08-30T11:47:11.651Z,8712
2016-08-30T11:48:10.206Z,8752
2016-08-30T11:49:10.885Z,9092
2016-08-30T11:50:10.873Z,9468
2016-08-30T11:51:10.132Z,9296
2016-08-30T11:52:10.107Z,9220
2016-08-30T11:53:10.086Z,8920
2016-08-30T11:54:10.058Z,8696
2016-08-30T11:55:11.434Z,8772
2016-08-30T11:56:10.703Z,8944
2016-08-30T11:57:10.677Z,9200
2016-08-30T11:58:11.351Z,9968
2016-08-30T11:59:10.635Z,9632
2016-08-30T12:00:10.605Z,9412
2016-08-30T12:01:09.183Z,9600
2016-08-30T12:02:11.248Z,10660
2016-08-30T12:03:09.822Z,9264
2016-08-30T12:04:10.499Z,9972
2016-08-30T12:05:10.501Z,9908
2016-08-30T12:06:09.746Z,9004
2016-08-30T12:07:09.726Z,9160
2016-08-30T12:08:10.397Z,8808
2016-08-30T12:09:09.669Z,8620
2016-08-30T12:10:09.647Z,8708
2016-08-30T12:11:09.618Z,8860
2016-08-30T12:12:10.285Z,8836
2016-08-30T12:13:09.567Z,8824
2016-08-30T12:14:10.933Z,8988
2016-08-30T12:15:11.005Z,8916
2016-08-30T12:16:10.898Z,9156
2016-08-30T12:17:10.162Z,9680
2016-08-30T12:18:10.127Z,10340
2016-08-30T12:19:10.818Z,11404
2016-08-30T12:20:10.090Z,10888
2016-08-30T12:21:10.758Z,9712
2016-08-30T12:22:10.032Z,8900
2016-08-30T12:23:10.697Z,7940
2016-08-30T12:24:09.979Z,8200
2016-08-30T12:25:10.405Z,8536
2016-08-30T12:26:09.928Z,8420
2016-08-30T12:27:09.899Z,8632
2016-08-30T12:28:10.564Z,9044
2016-08-30T12:29:09.145Z,8956
2016-08-30T12:30:10.523Z,8580
2016-08-30T12:31:10.495Z,8240
2016-08-30T12:32:09.764Z,8532
2016-08-30T12:33:09.733Z,8776
2016-08-30T12:34:09.015Z,8784
2016-08-30T12:35:08.989Z,8656
2016-08-30T12:36:10.356Z,8232
2016-08-30T12:37:09.634Z,8412
2016-08-30T12:38:08.902Z,9244
2016-08-30T12:39:08.882Z,9752
2016-08-30T12:40:09.700Z,9040
2016-08-30T12:41:10.222Z,7720
2016-08-30T12:42:08.800Z,7704
2016-08-30T12:43:09.467Z,7964
2016-08-30T12:44:08.749Z,8052
2016-08-30T12:45:08.883Z,8136
2016-08-30T12:46:10.081Z,8404
2016-08-30T12:47:09.364Z,8180
2016-08-30T12:48:09.349Z,8056
2016-08-30T12:49:08.612Z,8268
2016-08-30T12:50:08.587Z,8536
2016-08-30T12:51:09.259Z,9272
2016-08-30T12:52:08.585Z,9776
2016-08-30T12:53:09.207Z,11020
2016-08-30T12:54:09.877Z,10520
2016-08-30T12:55:10.415Z,9112
2016-08-30T12:56:09.120Z,7744
2016-08-30T12:57:09.100Z,6924
2016-08-30T12:58:09.768Z,7444
2016-08-30T12:59:09.045Z,7480
2016-08-30T13:00:09.033Z,7760
2016-08-30T13:01:09.318Z,8068
2016-08-30T13:02:08.964Z,7468
2016-08-30T13:03:09.635Z,7264
2016-08-30T13:04:08.906Z,7168
2016-08-30T13:05:09.830Z,7284
2016-08-30T13:06:08.873Z,7312
2016-08-30T13:07:08.132Z,7280
2016-08-30T13:08:08.809Z,7260
2016-08-30T13:09:08.777Z,7388
2016-08-30T13:10:10.160Z,7404
2016-08-30T13:11:08.029Z,7184
2016-08-30T13:12:07.301Z,7156
2016-08-30T13:13:08.675Z,7116
2016-08-30T13:14:08.648Z,7188
2016-08-30T13:15:08.613Z,7272
2016-08-30T13:16:09.289Z,7156
2016-08-30T13:17:08.566Z,7088
2016-08-30T13:18:07.875Z,7156
2016-08-30T13:19:08.511Z,7616
2016-08-30T13:20:08.483Z,7892
2016-08-30T13:21:08.462Z,8472
2016-08-30T13:22:07.741Z,10276
2016-08-30T13:23:07.717Z,9768
2016-08-30T13:24:07.680Z,8616
2016-08-30T13:25:09.055Z,8068
2016-08-30T13:26:07.694Z,7704
2016-08-30T13:27:08.298Z,8628
2016-08-30T13:28:08.278Z,8512
2016-08-30T13:29:08.956Z,8224
2016-08-30T13:30:08.308Z,8012
2016-08-30T13:31:08.197Z,8528
2016-08-30T13:32:08.866Z,9216
2016-08-30T13:33:08.841Z,9720
2016-08-30T13:34:08.820Z,9368
2016-08-30T13:35:09.094Z,9408
2016-08-30T13:36:08.756Z,9748